createdAt,value
2023-01-30T00:02:18.548Z,9.60
2023-01-30T00:05:42.769Z,10.30
2023-01-30T00:09:04.444Z,10.30
2023-01-30T00:12:26.124Z,10.13
2023-01-30T00:15:50.017Z,10.07
2023-01-30T00:19:11.656Z,10.37
2023-01-30T00:22:33.238Z,10.20
2023-01-30T00:25:54.956Z,10.63
2023-01-30T00:29:18.974Z,10.93
2023-01-30T00:32:40.604Z,10.97
2023-01-30T00:36:02.792Z,12.23
2023-01-30T00:39:24.534Z,11.07
2023-01-30T00:43:04.392Z,10.27
2023-01-30T00:46:48.405Z,12.00
2023-01-30T00:50:10.444Z,10.37
2023-01-30T00:53:34.607Z,10.87
2023-01-30T00:56:56.288Z,10.70
2023-01-30T01:00:18.143Z,13.97
2023-01-30T01:03:39.741Z,14.83
2023-01-30T01:07:04.337Z,12.23
2023-01-30T01:10:25.977Z,10.77
2023-01-30T01:13:47.889Z,11.57
2023-01-30T01:17:13.214Z,10.27
2023-01-30T01:20:37.215Z,11.13
2023-01-30T01:24:01.551Z,10.03
2023-01-30T01:27:25.749Z,11.00
2023-01-30T01:30:47.320Z,11.20
2023-01-30T01:34:08.991Z,11.47
2023-01-30T01:37:30.593Z,10.90
2023-01-30T01:41:07.483Z,10.93
2023-01-30T01:45:04.010Z,10.33
2023-01-30T01:48:33.386Z,11.03
2023-01-30T01:52:19.643Z,11.47
2023-01-30T01:55:43.800Z,10.40
2023-01-30T01:59:14.061Z,10.67
2023-01-30T02:02:37.903Z,10.80
2023-01-30T02:06:03.229Z,10.63
2023-01-30T02:09:27.104Z,11.73
2023-01-30T02:12:52.440Z,11.07
2023-01-30T02:16:14.697Z,11.83
2023-01-30T02:19:52.728Z,10.17
2023-01-30T02:23:26.235Z,10.93
2023-01-30T02:27:26.305Z,27.77
2023-01-30T02:30:53.658Z,12.98
2023-01-30T02:34:38.884Z,10.73
2023-01-30T02:38:30.888Z,11.67
2023-01-30T02:41:58.041Z,10.47
2023-01-30T02:45:33.071Z,12.17
2023-01-30T02:48:59.950Z,11.63
2023-01-30T02:52:22.564Z,10.30
2023-01-30T02:55:44.165Z,15.43
2023-01-30T02:59:09.292Z,11.97
2023-01-30T03:02:33.992Z,11.50
2023-01-30T03:06:19.275Z,10.93
2023-01-30T03:09:52.241Z,10.27
2023-01-30T03:13:29.621Z,11.00
2023-01-30T03:16:54.437Z,10.87
2023-01-30T03:20:21.238Z,11.93
2023-01-30T03:23:47.494Z,12.37
2023-01-30T03:27:12.058Z,13.63
2023-01-30T03:30:33.995Z,15.63
2023-01-30T03:33:55.667Z,11.90
2023-01-30T03:37:17.383Z,12.60
2023-01-30T03:40:39.355Z,11.37
2023-01-30T03:44:03.411Z,12.30
2023-01-30T03:47:25.041Z,12.67
2023-01-30T03:50:46.634Z,14.03
2023-01-30T03:54:13.225Z,17.33
2023-01-30T03:57:40.076Z,16.07
2023-01-30T04:01:01.727Z,13.83
2023-01-30T04:04:26.012Z,12.63
2023-01-30T04:07:50.606Z,12.97
2023-01-30T04:11:12.180Z,22.60
2023-01-30T04:14:36.179Z,18.67
2023-01-30T04:17:57.842Z,14.63
2023-01-30T04:21:24.524Z,13.83
2023-01-30T04:24:46.141Z,13.43
2023-01-30T04:28:10.105Z,14.17
2023-01-30T04:31:31.704Z,13.53
2023-01-30T04:34:53.397Z,13.00
2023-01-30T04:38:15.008Z,13.23
2023-01-30T04:41:36.698Z,13.80
2023-01-30T04:44:58.347Z,14.37
2023-01-30T04:48:24.656Z,13.73
2023-01-30T04:51:46.342Z,13.53
2023-01-30T04:55:08.477Z,12.60
2023-01-30T04:58:32.450Z,12.90
2023-01-30T05:01:55.075Z,12.60
2023-01-30T05:05:19.380Z,13.53
2023-01-30T05:08:41.220Z,12.60
2023-01-30T05:12:02.844Z,12.57
2023-01-30T05:15:24.452Z,13.27
2023-01-30T05:18:46.094Z,13.60
2023-01-30T05:22:10.232Z,16.23
2023-01-30T05:25:34.163Z,13.37
2023-01-30T05:28:58.618Z,13.77
2023-01-30T05:32:20.831Z,13.63
2023-01-30T05:35:50.223Z,14.27
2023-01-30T05:39:11.821Z,14.20
2023-01-30T05:42:33.630Z,19.90
2023-01-30T05:45:59.118Z,19.73
2023-01-30T05:49:21.032Z,16.43
2023-01-30T05:52:44.912Z,13.87
2023-01-30T05:56:06.937Z,15.07
2023-01-30T05:59:28.625Z,13.07
2023-01-30T06:02:51.480Z,13.23
2023-01-30T06:06:13.707Z,13.50
2023-01-30T06:09:35.329Z,12.63
2023-01-30T06:12:56.960Z,13.47
2023-01-30T06:16:19.518Z,13.50
2023-01-30T06:19:41.177Z,14.97
2023-01-30T06:23:02.835Z,14.70
2023-01-30T06:26:27.479Z,14.00
2023-01-30T06:29:52.116Z,14.87
2023-01-30T06:33:16.909Z,13.70
2023-01-30T06:36:44.098Z,13.90
2023-01-30T06:40:11.215Z,13.50
2023-01-30T06:43:32.904Z,14.40
2023-01-30T06:46:57.091Z,13.20
2023-01-30T06:50:22.866Z,15.20
2023-01-30T06:53:46.995Z,14.37
2023-01-30T06:57:08.962Z,13.67
2023-01-30T07:00:31.135Z,14.50
2023-01-30T07:03:55.197Z,15.97
2023-01-30T07:07:16.796Z,14.40
2023-01-30T07:10:38.920Z,16.10
2023-01-30T07:14:06.337Z,17.47
2023-01-30T07:17:31.150Z,18.27
2023-01-30T07:20:55.303Z,17.40
2023-01-30T07:24:19.508Z,15.67
2023-01-30T07:27:41.262Z,15.30
2023-01-30T07:31:02.911Z,15.67
2023-01-30T07:34:24.561Z,15.77
2023-01-30T07:37:47.851Z,14.83
2023-01-30T07:41:11.645Z,14.40
2023-01-30T07:44:36.235Z,14.77
2023-01-30T07:47:57.808Z,16.20
2023-01-30T07:51:22.403Z,14.93
2023-01-30T07:54:46.198Z,15.77
2023-01-30T07:58:07.815Z,15.20
2023-01-30T08:01:32.716Z,14.57
2023-01-30T08:04:54.727Z,14.63
2023-01-30T08:08:21.359Z,14.30
2023-01-30T08:11:42.935Z,14.00
2023-01-30T08:15:08.111Z,14.93
2023-01-30T08:18:30.477Z,13.30
2023-01-30T08:21:52.108Z,13.37
2023-01-30T08:25:13.691Z,14.37
2023-01-30T08:28:35.265Z,15.27
2023-01-30T08:32:00.543Z,14.83
2023-01-30T08:35:22.254Z,14.77
2023-01-30T08:38:46.054Z,13.33
2023-01-30T08:42:07.693Z,13.97
2023-01-30T08:45:29.375Z,13.70
2023-01-30T08:48:50.992Z,14.17
2023-01-30T08:52:12.601Z,13.77
2023-01-30T08:55:34.171Z,13.70
2023-01-30T08:58:56.132Z,14.17
2023-01-30T09:02:17.847Z,14.87
2023-01-30T09:05:39.636Z,14.67
2023-01-30T09:09:01.301Z,15.20
2023-01-30T09:12:23.116Z,15.13
2023-01-30T09:15:45.578Z,16.03
2023-01-30T09:19:07.188Z,16.60
2023-01-30T09:22:28.775Z,15.77
2023-01-30T09:25:52.457Z,17.53
2023-01-30T09:29:15.200Z,17.03
2023-01-30T09:32:37.560Z,16.13
2023-01-30T09:35:59.170Z,16.83
2023-01-30T09:39:21.556Z,17.33
2023-01-30T09:43:03.865Z,16.63
2023-01-30T09:46:34.547Z,15.73
2023-01-30T09:50:14.353Z,17.60
2023-01-30T09:54:00.123Z,16.40
2023-01-30T09:57:25.332Z,15.83
2023-01-30T10:00:49.379Z,17.67
2023-01-30T10:04:39.078Z,16.23
2023-01-30T10:08:10.952Z,16.63
2023-01-30T10:11:59.118Z,16.50
2023-01-30T10:15:26.760Z,14.67
2023-01-30T10:19:20.551Z,17.90
2023-01-30T10:23:12.963Z,17.37
2023-01-30T10:26:34.655Z,17.43
2023-01-30T10:30:04.490Z,17.07
2023-01-30T10:33:33.824Z,16.07
2023-01-30T10:37:45.825Z,17.63
2023-01-30T10:41:19.564Z,16.70
2023-01-30T10:44:44.333Z,18.03
2023-01-30T10:48:42.139Z,23.87
2023-01-30T10:52:28.926Z,16.63
2023-01-30T10:56:12.758Z,15.30
2023-01-30T10:59:56.215Z,18.70
2023-01-30T11:03:23.457Z,19.33
2023-01-30T11:06:48.143Z,19.37
2023-01-30T11:10:31.878Z,16.47
2023-01-30T11:14:11.213Z,16.23
2023-01-30T11:17:42.714Z,15.32
2023-01-30T11:21:05.390Z,14.37
2023-01-30T11:24:32.703Z,14.00
2023-01-30T11:28:05.233Z,14.70
2023-01-30T11:31:41.317Z,15.13
2023-01-30T11:35:09.378Z,14.03
2023-01-30T11:38:35.318Z,14.93
2023-01-30T11:42:01.858Z,13.33
2023-01-30T11:45:26.868Z,13.17
2023-01-30T11:49:33.698Z,14.00
2023-01-30T11:52:45.727Z,12.53
2023-01-30T11:56:16.081Z,12.93
2023-01-30T11:59:47.594Z,13.40
2023-01-30T12:03:14.963Z,17.27
2023-01-30T12:06:39.331Z,16.03
2023-01-30T12:10:01.613Z,13.33
2023-01-30T12:13:43.650Z,12.23
2023-01-30T12:17:33.044Z,11.83
2023-01-30T12:21:28.166Z,12.30
2023-01-30T12:25:12.272Z,11.17
2023-01-30T12:28:56.456Z,11.37
2023-01-30T12:32:25.948Z,12.50
2023-01-30T12:36:06.307Z,12.53
2023-01-30T12:39:27.858Z,12.03
2023-01-30T12:43:10.986Z,11.80
2023-01-30T12:46:33.621Z,11.03
2023-01-30T12:50:22.630Z,21.60
2023-01-30T12:53:56.332Z,11.97
2023-01-30T12:57:34.345Z,11.50
2023-01-30T13:01:05.058Z,10.80
2023-01-30T13:05:01.761Z,10.20
2023-01-30T13:08:30.942Z,11.77
2023-01-30T13:12:05.932Z,11.43
2023-01-30T13:15:46.376Z,12.20
2023-01-30T13:19:40.953Z,10.70
2023-01-30T13:23:14.456Z,10.80
2023-01-30T13:26:44.196Z,9.83
2023-01-30T13:30:11.060Z,10.03
2023-01-30T13:33:35.351Z,11.00
2023-01-30T13:37:13.020Z,10.37
2023-01-30T13:40:45.172Z,10.97
2023-01-30T13:44:29.189Z,9.50
2023-01-30T13:48:15.444Z,12.03
2023-01-30T13:51:43.890Z,11.70
2023-01-30T13:55:36.270Z,11.15
2023-01-30T13:59:13.928Z,11.33
2023-01-30T14:02:37.780Z,10.50
2023-01-30T14:06:02.900Z,10.90
2023-01-30T14:09:29.193Z,10.90
2023-01-30T14:12:53.867Z,10.97
2023-01-30T14:16:16.413Z,9.70
2023-01-30T14:19:43.423Z,10.37
2023-01-30T14:23:28.776Z,11.10
2023-01-30T14:26:53.266Z,15.83
2023-01-30T14:30:45.127Z,12.20
2023-01-30T14:34:41.713Z,9.77
2023-01-30T14:38:06.411Z,10.53
2023-01-30T14:41:28.703Z,11.13
2023-01-30T14:44:58.591Z,12.87
2023-01-30T14:48:36.919Z,10.80
2023-01-30T14:51:59.896Z,10.15
2023-01-30T14:55:24.276Z,9.60
2023-01-30T14:59:00.510Z,9.90
2023-01-30T15:02:26.470Z,9.87
2023-01-30T15:05:48.456Z,9.07
2023-01-30T15:09:12.105Z,10.97
2023-01-30T15:13:00.659Z,15.37
2023-01-30T15:16:55.681Z,10.63
2023-01-30T15:20:45.433Z,10.63
2023-01-30T15:24:22.591Z,11.07
2023-01-30T15:28:10.867Z,10.27
2023-01-30T15:31:35.132Z,10.50
2023-01-30T15:35:02.102Z,10.17
2023-01-30T15:38:32.706Z,11.33
2023-01-30T15:42:04.789Z,11.10
2023-01-30T15:45:59.333Z,10.63
2023-01-30T15:49:40.982Z,10.07
2023-01-30T15:53:11.961Z,11.27
2023-01-30T15:56:33.759Z,11.50
2023-01-30T15:59:57.061Z,11.37
2023-01-30T16:03:22.225Z,9.63
2023-01-30T16:06:43.853Z,9.13
2023-01-30T16:10:14.491Z,9.70
2023-01-30T16:13:36.912Z,9.83
2023-01-30T16:17:06.304Z,10.70
2023-01-30T16:20:34.432Z,10.77
2023-01-30T16:24:08.413Z,10.57
2023-01-30T16:27:35.527Z,11.33
2023-01-30T16:30:59.469Z,11.53
2023-01-30T16:34:33.307Z,10.40
2023-01-30T16:37:57.070Z,10.17
2023-01-30T16:41:35.280Z,11.23
2023-01-30T16:45:35.451Z,11.27
2023-01-30T16:49:03.982Z,11.13
2023-01-30T16:52:34.680Z,11.75
2023-01-30T16:56:02.734Z,11.40
2023-01-30T16:59:37.954Z,12.03
2023-01-30T17:03:02.742Z,11.97
2023-01-30T17:06:35.369Z,10.53
2023-01-30T17:09:59.915Z,11.37
2023-01-30T17:13:56.242Z,29.13
2023-01-30T17:17:20.270Z,12.00
2023-01-30T17:20:47.490Z,11.17
2023-01-30T17:24:15.165Z,13.80
2023-01-30T17:27:38.784Z,12.20
2023-01-30T17:31:00.810Z,11.77
2023-01-30T17:34:23.218Z,12.90
2023-01-30T17:37:48.518Z,11.10
2023-01-30T17:41:30.924Z,10.87
2023-01-30T17:44:52.617Z,12.10
2023-01-30T17:48:14.444Z,11.30
2023-01-30T17:51:36.058Z,13.03
2023-01-30T17:55:00.005Z,15.10
2023-01-30T17:58:21.881Z,16.10
2023-01-30T18:01:48.513Z,16.13
2023-01-30T18:05:10.572Z,13.73
2023-01-30T18:08:32.165Z,13.73
2023-01-30T18:11:54.027Z,13.47
2023-01-30T18:15:16.272Z,12.63
2023-01-30T18:18:38.137Z,10.50
2023-01-30T18:22:00.197Z,8.33
2023-01-30T18:25:24.363Z,8.23
2023-01-30T18:28:46.484Z,7.40
2023-01-30T18:32:10.854Z,8.00
2023-01-30T18:35:32.526Z,7.60
2023-01-30T18:38:57.705Z,7.60
2023-01-30T18:42:19.280Z,7.83
2023-01-30T18:45:40.864Z,7.43
2023-01-30T18:49:02.683Z,7.43
2023-01-30T18:52:24.297Z,7.40
2023-01-30T18:55:52.292Z,7.50
2023-01-30T18:59:16.072Z,7.97
2023-01-30T19:02:37.759Z,7.13
2023-01-30T19:06:01.459Z,7.37
2023-01-30T19:09:23.109Z,7.90
2023-01-30T19:13:03.779Z,7.57
2023-01-30T19:16:27.112Z,6.67
2023-01-30T19:19:51.116Z,6.73
2023-01-30T19:23:15.620Z,6.97
2023-01-30T19:26:37.236Z,9.90
2023-01-30T19:29:58.929Z,8.83
2023-01-30T19:33:21.300Z,6.77
2023-01-30T19:36:47.753Z,6.43
2023-01-30T19:40:11.214Z,6.30
2023-01-30T19:43:32.775Z,5.67
2023-01-30T19:46:55.740Z,5.27
2023-01-30T19:50:19.981Z,4.63
2023-01-30T19:53:43.628Z,4.13
2023-01-30T19:57:05.175Z,4.53
2023-01-30T20:00:29.049Z,4.10
2023-01-30T20:03:53.313Z,4.60
2023-01-30T20:07:14.902Z,4.50
2023-01-30T20:10:36.634Z,7.43
2023-01-30T20:13:58.792Z,5.70
2023-01-30T20:17:20.338Z,4.30
2023-01-30T20:20:41.927Z,4.30
2023-01-30T20:24:04.498Z,4.30
2023-01-30T20:27:28.754Z,4.00
2023-01-30T20:30:50.362Z,4.07
2023-01-30T20:34:14.151Z,3.40
2023-01-30T20:37:38.000Z,3.63
2023-01-30T20:41:17.917Z,3.60
2023-01-30T20:44:39.826Z,3.77
2023-01-30T20:48:04.327Z,3.83
2023-01-30T20:51:28.395Z,3.73
2023-01-30T20:54:50.044Z,3.63
2023-01-30T20:58:14.142Z,3.17
2023-01-30T21:01:36.032Z,3.80
2023-01-30T21:04:57.699Z,3.90
2023-01-30T21:08:19.302Z,4.20
2023-01-30T21:11:41.137Z,17.90
2023-01-30T21:15:02.910Z,6.10
2023-01-30T21:18:24.560Z,3.70
2023-01-30T21:21:51.037Z,3.43
2023-01-30T21:25:13.301Z,3.50
2023-01-30T21:28:39.136Z,3.07
2023-01-30T21:32:03.371Z,3.30
2023-01-30T21:35:25.473Z,3.20
2023-01-30T21:39:05.629Z,3.17
2023-01-30T21:42:45.823Z,3.27
2023-01-30T21:46:07.587Z,3.00
2023-01-30T21:49:29.189Z,3.50
2023-01-30T21:52:53.248Z,2.90
2023-01-30T21:56:14.948Z,3.40
2023-01-30T21:59:36.587Z,3.27
2023-01-30T22:02:58.221Z,4.00
2023-01-30T22:06:22.275Z,3.50
2023-01-30T22:09:43.930Z,3.60
2023-01-30T22:13:05.498Z,3.20
2023-01-30T22:16:33.646Z,3.40
2023-01-30T22:19:55.270Z,3.17
2023-01-30T22:23:19.091Z,3.20
2023-01-30T22:26:40.920Z,3.10
2023-01-30T22:30:02.643Z,3.30
2023-01-30T22:33:24.187Z,3.10
2023-01-30T22:36:46.373Z,3.73
2023-01-30T22:40:08.731Z,3.73
2023-01-30T22:43:31.279Z,3.40
2023-01-30T22:46:53.345Z,3.20
2023-01-30T22:50:14.966Z,3.20
2023-01-30T22:53:41.793Z,3.23
2023-01-30T22:57:05.603Z,3.50
2023-01-30T23:00:27.287Z,2.93
2023-01-30T23:03:55.223Z,2.97
2023-01-30T23:07:17.829Z,2.60
2023-01-30T23:10:40.363Z,2.87
2023-01-30T23:14:14.446Z,2.47
2023-01-30T23:17:54.791Z,2.30
2023-01-30T23:21:17.019Z,3.00
2023-01-30T23:24:39.062Z,2.57
2023-01-30T23:28:03.426Z,2.90
2023-01-30T23:31:27.329Z,3.00
2023-01-30T23:34:49.040Z,2.40
2023-01-30T23:38:19.709Z,2.40
2023-01-30T23:41:42.484Z,2.40
2023-01-30T23:45:04.785Z,2.27
2023-01-30T23:48:29.624Z,2.30
2023-01-30T23:51:53.703Z,2.50
2023-01-30T23:55:15.404Z,2.43
2023-01-30T23:58:37.656Z,2.37
